Hertfordshire — ZDJS5 — position and weather

sailwx.info

Track history (hours):
 
Tides and Currents Weather Stations Pressure Air Temp Water Temp Dewpoint Dewpoint Depression Visibility Wind Speed Wind Dir Waves Ship Positions

Hertfordshire

Last reported at 2014-Nov-01 04:33 UTC. Time now 2014-Nov-01 04:49 UTC.
Position N 53°00' E 001°12'.

Length 83 m; draft 4.9 m.

Type: Cargo ship. MMSI: 236563000.

Date/timePositionNaut miles runAvg speedWind from/ knotsBaromVisibWave heightAir tempDewpointWater temp
2014-Nov-01 04:33N 53°00' E 001°12'1110.6
2014-Nov-01 03:33N 52°55' E 001°27'9 9.3
2014-Nov-01 02:34N 52°50' E 001°40'9 8.5
2014-Nov-01 01:33N 52°45' E 001°52'8 8.1
2014-Nov-01 00:34N 52°39' E 001°60'9 9.1
2014-Oct-31 23:33N 52°31' E 002°08'1010.4
2014-Oct-31 22:33N 52°22' E 002°17'1110.9
2014-Oct-31 21:32N 52°13' E 002°27'1110.9
2014-Oct-31 20:33N 52°06' E 002°39'1110.8
2014-Oct-31 19:33N 51°58' E 002°52'1110.5
2014-Oct-31 18:33N 51°51' E 003°04'1010.3
2014-Oct-31 17:33N 51°43' E 003°16'10 9.7
2014-Oct-31 16:33N 51°35' E 003°24'9 8.9
2014-Oct-31 15:33N 51°27' E 003°31'9 8.8
2014-Oct-31 14:33N 51°23' E 003°43'5 4.9
2014-Oct-31 13:33N 51°20' E 003°49'2 1.8
2014-Oct-31 12:31N 51°18' E 003°51'0 0.0
2014-Oct-31 11:22N 51°18' E 003°51'0 0.0
2014-Oct-31 10:31N 51°18' E 003°51'0 0.0
2014-Oct-31 09:31N 51°18' E 003°51'0 0.0
2014-Oct-31 08:31N 51°18' E 003°51'0 0.0
2014-Oct-31 07:31N 51°18' E 003°51'0 0.0
2014-Oct-31 06:28N 51°18' E 003°51'0 0.0
2014-Oct-31 05:28N 51°18' E 003°51'0 0.0
2014-Oct-31 04:19N 51°18' E 003°51'0 0.0
2014-Oct-31 03:28N 51°18' E 003°51'0 0.0
2014-Oct-31 02:28N 51°18' E 003°51'0 0.0
2014-Oct-31 01:28N 51°18' E 003°51'0 0.0
2014-Oct-31 00:28N 51°18' E 003°51'0 0.0
2014-Oct-30 23:28N 51°18' E 003°51'0 0.0
2014-Oct-30 22:31N 51°18' E 003°51'0 0.0
2014-Oct-30 21:09N 51°18' E 003°51'0 0.0
2014-Oct-30 20:33N 51°18' E 003°51'0 0.0
2014-Oct-30 19:33N 51°18' E 003°51'0 0.0
2014-Oct-30 18:30N 51°18' E 003°51'0 0.0
2014-Oct-30 17:27N 51°18' E 003°51'0 0.0
2014-Oct-30 16:15N 51°18' E 003°51'0 0.0
2014-Oct-30 15:21N 51°18' E 003°51'0 0.0
2014-Oct-30 14:15N 51°18' E 003°51'0 0.0
2014-Oct-30 13:27N 51°18' E 003°51'0 0.0
2014-Oct-30 11:18N 51°18' E 003°51'0 0.0
2014-Oct-30 09:24N 51°18' E 003°51'0 0.0
2014-Oct-30 08:30N 51°18' E 003°51'0 0.0
2014-Oct-30 07:30N 51°18' E 003°50'0 0.0
2014-Oct-30 06:28N 51°18' E 003°51'2 2.2
2014-Oct-30 05:33N 51°20' E 003°49'8 8.3
2014-Oct-30 04:33N 51°25' E 003°39'1110.9
2014-Oct-30 03:33N 51°32' E 003°25'1111.4
2014-Oct-30 02:33N 51°42' E 003°16'6510.8
2014-Oct-29 20:33N 52°32' E 002°10'10 9.8
2014-Oct-29 19:33N 52°40' E 002°00'9 8.8
2014-Oct-29 18:33N 52°46' E 001°50'9 8.9
2014-Oct-29 17:33N 52°51' E 001°37'8 8.5
2014-Oct-29 16:33N 52°55' E 001°26'9 8.7
2014-Oct-29 15:33N 52°60' E 001°13'39 9.3
2014-Oct-29 11:21N 53°31' E 000°34'810.3
2014-Oct-29 10:33N 53°38' E 000°29'1110.8
2014-Oct-29 09:33N 53°48' E 000°21'1111.4
2014-Oct-29 08:33N 53°58' E 000°12'1212.0
2014-Oct-29 07:33N 54°08' E 000°02'1212.3
2014-Oct-29 06:33N 54°18' W 000°11'1211.9
2014-Oct-29 05:34N 54°27' W 000°24'1211.6
2014-Oct-29 04:33N 54°36' W 000°37'1111.1
2014-Oct-29 03:33N 54°45' W 000°50'1110.7
2014-Oct-29 02:33N 54°53' W 001°01'1310.4
2014-Oct-29 01:19N 55°05' W 001°10'4910.1
2014-Oct-28 20:28N 55°48' W 001°49'1011.0
2014-Oct-28 19:33N 55°55' W 002°03'1111.3
2014-Oct-28 18:33N 56°00' W 002°20'1111.5
2014-Oct-28 17:33N 56°06' W 002°39'1111.0
2014-Oct-28 16:33N 56°06' W 002°59'6 5.6
2014-Oct-28 15:29N 56°07' W 003°09'0 0.0
2014-Oct-28 14:29N 56°07' W 003°09'0 0.0
2014-Oct-28 13:29N 56°07' W 003°09'0 0.0
2014-Oct-28 12:29N 56°07' W 003°09'0 0.0
2014-Oct-28 11:32N 56°07' W 003°09'0 0.0
2014-Oct-28 10:32N 56°07' W 003°09'0 0.0
2014-Oct-28 09:32N 56°07' W 003°09'0 0.0
2014-Oct-28 08:32N 56°07' W 003°09'0 0.0
2014-Oct-28 07:32N 56°07' W 003°09'0 0.0
2014-Oct-28 06:32N 56°07' W 003°09'0 0.0
2014-Oct-28 05:23N 56°07' W 003°09'0 0.0
2014-Oct-28 04:26N 56°07' W 003°09'0 0.0
2014-Oct-28 03:26N 56°07' W 003°09'0 0.0
2014-Oct-28 02:26N 56°07' W 003°09'0 0.0
2014-Oct-28 01:29N 56°07' W 003°09'0 0.0
2014-Oct-28 00:27N 56°07' W 003°09'0 0.0
2014-Oct-27 23:27N 56°07' W 003°09'0 0.0
2014-Oct-27 22:30N 56°07' W 003°09'0 0.0
2014-Oct-27 21:27N 56°07' W 003°09'0 0.0
2014-Oct-27 20:30N 56°07' W 003°09'0 0.0
2014-Oct-27 19:33N 56°07' W 003°09'0 0.0
2014-Oct-27 18:33N 56°07' W 003°09'0 0.0
2014-Oct-27 17:33N 56°07' W 003°09'0 0.0
2014-Oct-27 16:33N 56°07' W 003°09'1 0.5
2014-Oct-27 15:33N 56°06' W 003°09'1 0.6
2014-Oct-27 14:29N 56°06' W 003°08'0 0.0
2014-Oct-27 13:32N 56°06' W 003°08'0 0.0
2014-Oct-27 12:32N 56°06' W 003°08'0 0.0
2014-Oct-27 11:32N 56°06' W 003°08'0 0.0
2014-Oct-27 10:29N 56°06' W 003°08'0 0.0
2014-Oct-27 09:32N 56°06' W 003°08'0 0.0
2014-Oct-27 08:32N 56°06' W 003°08'0 0.0
2014-Oct-27 07:32N 56°06' W 003°08'0 0.0
2014-Oct-27 06:20N 56°06' W 003°08'0 0.0
2014-Oct-27 05:26N 56°06' W 003°08'0 0.0
2014-Oct-27 04:26N 56°06' W 003°08'0 0.0
2014-Oct-27 03:26N 56°06' W 003°08'0 0.0
2014-Oct-27 02:29N 56°06' W 003°08'0 0.0
2014-Oct-27 01:29N 56°06' W 003°08'0 0.0
2014-Oct-27 00:29N 56°06' W 003°08'0 0.0
2014-Oct-26 23:32N 56°06' W 003°08'0 0.0
2014-Oct-26 22:32N 56°06' W 003°08'0 0.0
2014-Oct-26 21:32N 56°06' W 003°08'0 0.0
2014-Oct-26 20:32N 56°06' W 003°08'0 0.0
2014-Oct-26 19:32N 56°06' W 003°08'0 0.0
2014-Oct-26 18:32N 56°06' W 003°08'0 0.0
2014-Oct-26 17:32N 56°06' W 003°08'0 0.0
2014-Oct-26 16:23N 56°06' W 003°08'0 0.0
2014-Oct-26 15:26N 56°06' W 003°08'0 0.0
2014-Oct-26 14:26N 56°06' W 003°08'0 0.0
2014-Oct-26 13:26N 56°06' W 003°08'0 0.0
2014-Oct-26 12:29N 56°06' W 003°08'0 0.0
2014-Oct-26 11:29N 56°06' W 003°08'0 0.0
2014-Oct-26 10:29N 56°06' W 003°08'0 0.0
2014-Oct-26 09:32N 56°06' W 003°08'0 0.0
2014-Oct-26 08:29N 56°06' W 003°08'0 0.0
2014-Oct-26 07:32N 56°06' W 003°08'0 0.0
2014-Oct-26 06:32N 56°06' W 003°08'0 0.0
2014-Oct-26 05:32N 56°06' W 003°08'0 0.0
2014-Oct-26 04:23N 56°06' W 003°08'0 0.0
2014-Oct-26 03:26N 56°06' W 003°08'0 0.0
2014-Oct-26 02:26N 56°06' W 003°08'0 0.0
2014-Oct-26 01:26N 56°06' W 003°08'0 0.0
2014-Oct-26 00:29N 56°06' W 003°08'0 0.0
2014-Oct-25 23:29N 56°06' W 003°08'0 0.0
2014-Oct-25 22:29N 56°06' W 003°08'0 0.0
2014-Oct-25 21:32N 56°06' W 003°08'0 0.0
2014-Oct-25 20:32N 56°06' W 003°08'0 0.0
2014-Oct-25 19:32N 56°06' W 003°08'0 0.0
2014-Oct-25 18:32N 56°06' W 003°08'0 0.0
2014-Oct-25 17:32N 56°06' W 003°08'0 0.0
2014-Oct-25 16:32N 56°06' W 003°08'0 0.0
2014-Oct-25 15:32N 56°06' W 003°08'1 0.9
2014-Oct-25 14:33N 56°06' W 003°06'9 9.4
2014-Oct-25 13:33N 56°06' W 002°49'9 9.4
2014-Oct-25 12:33N 56°04' W 002°33'1010.2
2014-Oct-25 11:33N 55°59' W 002°17'1111.0
2014-Oct-25 10:31N 55°53' W 001°59'5510.9
2014-Oct-25 05:30N 55°05' W 001°14'9 9.6
2014-Oct-25 04:33N 54°57' W 001°07'9 9.3
2014-Oct-25 03:33N 54°49' W 000°56'9 9.2
2014-Oct-25 02:33N 54°42' W 000°46'12 9.5
2014-Oct-25 01:17N 54°33' W 000°33'710.3
2014-Oct-25 00:33N 54°27' W 000°24'1110.9
2014-Oct-24 23:33N 54°19' W 000°13'1211.9
2014-Oct-24 22:33N 54°09' W 000°01'1212.0
2014-Oct-24 21:33N 53°59' E 000°10'1211.5
2014-Oct-24 20:33N 53°49' E 000°20'1111.0
2014-Oct-24 19:33N 53°39' E 000°28'10 9.7
2014-Oct-24 18:32N 53°30' E 000°35'36 9.1
2014-Oct-24 14:33N 53°01' E 001°11'1212.1
2014-Oct-24 13:33N 52°55' E 001°28'1312.5
2014-Oct-24 12:33N 52°48' E 001°45'10 9.9
2014-Oct-24 11:33N 52°40' E 001°54'1010.1
2014-Oct-24 10:33N 52°30' E 001°53'8 8.3
2014-Oct-24 09:33N 52°21' E 001°52'8 7.9
2014-Oct-24 08:33N 52°13' E 001°52'8 7.9
2014-Oct-24 07:33N 52°06' E 001°50'8 8.4
2014-Oct-24 06:33N 51°57' E 001°49'8 8.4
2014-Oct-24 05:33N 51°50' E 001°43'1110.6
2014-Oct-24 04:33N 51°46' E 001°28'1211.8
2014-Oct-24 03:33N 51°37' E 001°14'1212.4
2014-Oct-24 02:33N 51°31' E 000°57'1211.6
2014-Oct-24 01:33N 51°30' E 000°39'9 9.1
2014-Oct-24 00:33N 51°27' E 000°25'3 3.2
2014-Oct-23 23:33N 51°28' E 000°20'0 0.0
2014-Oct-23 22:33N 51°28' E 000°20'0 0.0
2014-Oct-23 21:33N 51°28' E 000°20'0 0.0
2014-Oct-23 20:33N 51°28' E 000°20'0 0.0
2014-Oct-23 19:33N 51°28' E 000°20'0 0.0
2014-Oct-23 18:33N 51°28' E 000°20'0 0.0
2014-Oct-23 17:33N 51°28' E 000°20'0 0.0
2014-Oct-23 16:33N 51°28' E 000°20'0 0.0
2014-Oct-23 15:33N 51°28' E 000°20'0 0.0
2014-Oct-23 14:33N 51°28' E 000°20'0 0.0
2014-Oct-23 13:33N 51°28' E 000°20'0 0.0
2014-Oct-23 12:33N 51°28' E 000°20'0 0.1
2014-Oct-23 11:33N 51°28' E 000°20'5 4.9
2014-Oct-23 10:33N 51°29' E 000°28'9 9.4
2014-Oct-23 09:33N 51°30' E 000°43'1010.0
2014-Oct-23 08:33N 51°30' E 000°59'0 0.3
2014-Oct-23 07:26N 51°31' E 000°59'0 0.1
2014-Oct-23 06:32N 51°31' E 000°59'0 0.0
2014-Oct-23 05:29N 51°31' E 000°59'0 0.0
2014-Oct-23 04:32N 51°31' E 000°59'0 0.0
2014-Oct-23 03:32N 51°31' E 000°59'0 0.0
2014-Oct-23 02:32N 51°31' E 000°59'0 0.0
2014-Oct-23 01:32N 51°31' E 000°59'0 0.0
2014-Oct-23 00:32N 51°31' E 000°59'0 0.1
2014-Oct-22 23:34N 51°31' E 000°59'1211.6
2014-Oct-22 22:34N 51°29' E 001°18'1212.2
2014-Oct-22 21:34N 51°29' E 001°37'1110.6
2014-Oct-22 20:33N 51°28' E 001°54'1010.1
2014-Oct-22 19:33N 51°23' E 002°09'1010.1
2014-Oct-22 18:33N 51°22' E 002°25'1111.1
2014-Oct-22 17:33N 51°22' E 002°42'1110.8
2014-Oct-22 16:34N 51°22' E 002°60'1211.6
2014-Oct-22 15:33N 51°24' E 003°18'1111.5
2014-Oct-22 14:33N 51°26' E 003°36'10 9.8
2014-Oct-22 13:33N 51°22' E 003°51'8 7.6
2014-Oct-22 12:34N 51°26' E 004°02'7 7.1
2014-Oct-22 11:33N 51°23' E 004°13'4 3.9
2014-Oct-22 10:33N 51°21' E 004°17'5 4.9
2014-Oct-22 09:33N 51°17' E 004°21'0 0.0
2014-Oct-22 08:30N 51°17' E 004°21'0 0.0
2014-Oct-22 07:33N 51°17' E 004°21'0 0.0
2014-Oct-22 06:30N 51°17' E 004°21'0 0.0
2014-Oct-22 05:33N 51°17' E 004°21'  
Track history (hours):
 
Tides and Currents Weather Stations Pressure Air Temp Water Temp Dewpoint Dewpoint Depression Visibility Wind Speed Wind Dir Waves Ship Positions

Hertfordshire

Last reported at 2014-Nov-01 04:33 UTC. Time now 2014-Nov-01 04:49 UTC.
Position N 53°00' E 001°12'.

Length 83 m; draft 4.9 m.

Type: Cargo ship. MMSI: 236563000.

Date/timePositionNaut miles runAvg speedWind from/ knotsBaromVisibWave heightAir tempDewpointWater temp
2014-Nov-01 04:33N 53°00' E 001°12'1110.6
2014-Nov-01 03:33N 52°55' E 001°27'9 9.3
2014-Nov-01 02:34N 52°50' E 001°40'9 8.5
2014-Nov-01 01:33N 52°45' E 001°52'8 8.1
2014-Nov-01 00:34N 52°39' E 001°60'9 9.1
2014-Oct-31 23:33N 52°31' E 002°08'1010.4
2014-Oct-31 22:33N 52°22' E 002°17'1110.9
2014-Oct-31 21:32N 52°13' E 002°27'1110.9
2014-Oct-31 20:33N 52°06' E 002°39'1110.8
2014-Oct-31 19:33N 51°58' E 002°52'1110.5
2014-Oct-31 18:33N 51°51' E 003°04'1010.3
2014-Oct-31 17:33N 51°43' E 003°16'10 9.7
2014-Oct-31 16:33N 51°35' E 003°24'9 8.9
2014-Oct-31 15:33N 51°27' E 003°31'9 8.8
2014-Oct-31 14:33N 51°23' E 003°43'5 4.9
2014-Oct-31 13:33N 51°20' E 003°49'2 1.8
2014-Oct-31 12:31N 51°18' E 003°51'0 0.0
2014-Oct-31 11:22N 51°18' E 003°51'0 0.0
2014-Oct-31 10:31N 51°18' E 003°51'0 0.0
2014-Oct-31 09:31N 51°18' E 003°51'0 0.0
2014-Oct-31 08:31N 51°18' E 003°51'0 0.0
2014-Oct-31 07:31N 51°18' E 003°51'0 0.0
2014-Oct-31 06:28N 51°18' E 003°51'0 0.0
2014-Oct-31 05:28N 51°18' E 003°51'0 0.0
2014-Oct-31 04:19N 51°18' E 003°51'0 0.0
2014-Oct-31 03:28N 51°18' E 003°51'0 0.0
2014-Oct-31 02:28N 51°18' E 003°51'0 0.0
2014-Oct-31 01:28N 51°18' E 003°51'0 0.0
2014-Oct-31 00:28N 51°18' E 003°51'0 0.0
2014-Oct-30 23:28N 51°18' E 003°51'0 0.0
2014-Oct-30 22:31N 51°18' E 003°51'0 0.0
2014-Oct-30 21:09N 51°18' E 003°51'0 0.0
2014-Oct-30 20:33N 51°18' E 003°51'0 0.0
2014-Oct-30 19:33N 51°18' E 003°51'0 0.0
2014-Oct-30 18:30N 51°18' E 003°51'0 0.0
2014-Oct-30 17:27N 51°18' E 003°51'0 0.0
2014-Oct-30 16:15N 51°18' E 003°51'0 0.0
2014-Oct-30 15:21N 51°18' E 003°51'0 0.0
2014-Oct-30 14:15N 51°18' E 003°51'0 0.0
2014-Oct-30 13:27N 51°18' E 003°51'0 0.0
2014-Oct-30 11:18N 51°18' E 003°51'0 0.0
2014-Oct-30 09:24N 51°18' E 003°51'0 0.0
2014-Oct-30 08:30N 51°18' E 003°51'0 0.0
2014-Oct-30 07:30N 51°18' E 003°50'0 0.0
2014-Oct-30 06:28N 51°18' E 003°51'2 2.2
2014-Oct-30 05:33N 51°20' E 003°49'8 8.3
2014-Oct-30 04:33N 51°25' E 003°39'1110.9
2014-Oct-30 03:33N 51°32' E 003°25'1111.4
2014-Oct-30 02:33N 51°42' E 003°16'6510.8
2014-Oct-29 20:33N 52°32' E 002°10'10 9.8
2014-Oct-29 19:33N 52°40' E 002°00'9 8.8
2014-Oct-29 18:33N 52°46' E 001°50'9 8.9
2014-Oct-29 17:33N 52°51' E 001°37'8 8.5
2014-Oct-29 16:33N 52°55' E 001°26'9 8.7
2014-Oct-29 15:33N 52°60' E 001°13'39 9.3
2014-Oct-29 11:21N 53°31' E 000°34'810.3
2014-Oct-29 10:33N 53°38' E 000°29'1110.8
2014-Oct-29 09:33N 53°48' E 000°21'1111.4
2014-Oct-29 08:33N 53°58' E 000°12'1212.0
2014-Oct-29 07:33N 54°08' E 000°02'1212.3
2014-Oct-29 06:33N 54°18' W 000°11'1211.9
2014-Oct-29 05:34N 54°27' W 000°24'1211.6
2014-Oct-29 04:33N 54°36' W 000°37'1111.1
2014-Oct-29 03:33N 54°45' W 000°50'1110.7
2014-Oct-29 02:33N 54°53' W 001°01'1310.4
2014-Oct-29 01:19N 55°05' W 001°10'4910.1
2014-Oct-28 20:28N 55°48' W 001°49'1011.0
2014-Oct-28 19:33N 55°55' W 002°03'1111.3
2014-Oct-28 18:33N 56°00' W 002°20'1111.5
2014-Oct-28 17:33N 56°06' W 002°39'1111.0
2014-Oct-28 16:33N 56°06' W 002°59'6 5.6
2014-Oct-28 15:29N 56°07' W 003°09'0 0.0
2014-Oct-28 14:29N 56°07' W 003°09'0 0.0
2014-Oct-28 13:29N 56°07' W 003°09'0 0.0
2014-Oct-28 12:29N 56°07' W 003°09'0 0.0
2014-Oct-28 11:32N 56°07' W 003°09'0 0.0
2014-Oct-28 10:32N 56°07' W 003°09'0 0.0
2014-Oct-28 09:32N 56°07' W 003°09'0 0.0
2014-Oct-28 08:32N 56°07' W 003°09'0 0.0
2014-Oct-28 07:32N 56°07' W 003°09'0 0.0
2014-Oct-28 06:32N 56°07' W 003°09'0 0.0
2014-Oct-28 05:23N 56°07' W 003°09'0 0.0
2014-Oct-28 04:26N 56°07' W 003°09'0 0.0
2014-Oct-28 03:26N 56°07' W 003°09'0 0.0
2014-Oct-28 02:26N 56°07' W 003°09'0 0.0
2014-Oct-28 01:29N 56°07' W 003°09'0 0.0
2014-Oct-28 00:27N 56°07' W 003°09'0 0.0
2014-Oct-27 23:27N 56°07' W 003°09'0 0.0
2014-Oct-27 22:30N 56°07' W 003°09'0 0.0
2014-Oct-27 21:27N 56°07' W 003°09'0 0.0
2014-Oct-27 20:30N 56°07' W 003°09'0 0.0
2014-Oct-27 19:33N 56°07' W 003°09'0 0.0
2014-Oct-27 18:33N 56°07' W 003°09'0 0.0
2014-Oct-27 17:33N 56°07' W 003°09'0 0.0
2014-Oct-27 16:33N 56°07' W 003°09'1 0.5
2014-Oct-27 15:33N 56°06' W 003°09'1 0.6
2014-Oct-27 14:29N 56°06' W 003°08'0 0.0
2014-Oct-27 13:32N 56°06' W 003°08'0 0.0
2014-Oct-27 12:32N 56°06' W 003°08'0 0.0
2014-Oct-27 11:32N 56°06' W 003°08'0 0.0
2014-Oct-27 10:29N 56°06' W 003°08'0 0.0
2014-Oct-27 09:32N 56°06' W 003°08'0 0.0
2014-Oct-27 08:32N 56°06' W 003°08'0 0.0
2014-Oct-27 07:32N 56°06' W 003°08'0 0.0
2014-Oct-27 06:20N 56°06' W 003°08'0 0.0
2014-Oct-27 05:26N 56°06' W 003°08'0 0.0
2014-Oct-27 04:26N 56°06' W 003°08'0 0.0
2014-Oct-27 03:26N 56°06' W 003°08'0 0.0
2014-Oct-27 02:29N 56°06' W 003°08'0 0.0
2014-Oct-27 01:29N 56°06' W 003°08'0 0.0
2014-Oct-27 00:29N 56°06' W 003°08'0 0.0
2014-Oct-26 23:32N 56°06' W 003°08'0 0.0
2014-Oct-26 22:32N 56°06' W 003°08'0 0.0
2014-Oct-26 21:32N 56°06' W 003°08'0 0.0
2014-Oct-26 20:32N 56°06' W 003°08'0 0.0
2014-Oct-26 19:32N 56°06' W 003°08'0 0.0
2014-Oct-26 18:32N 56°06' W 003°08'0 0.0
2014-Oct-26 17:32N 56°06' W 003°08'0 0.0
2014-Oct-26 16:23N 56°06' W 003°08'0 0.0
2014-Oct-26 15:26N 56°06' W 003°08'0 0.0
2014-Oct-26 14:26N 56°06' W 003°08'0 0.0
2014-Oct-26 13:26N 56°06' W 003°08'0 0.0
2014-Oct-26 12:29N 56°06' W 003°08'0 0.0
2014-Oct-26 11:29N 56°06' W 003°08'0 0.0
2014-Oct-26 10:29N 56°06' W 003°08'0 0.0
2014-Oct-26 09:32N 56°06' W 003°08'0 0.0
2014-Oct-26 08:29N 56°06' W 003°08'0 0.0
2014-Oct-26 07:32N 56°06' W 003°08'0 0.0
2014-Oct-26 06:32N 56°06' W 003°08'0 0.0
2014-Oct-26 05:32N 56°06' W 003°08'0 0.0
2014-Oct-26 04:23N 56°06' W 003°08'0 0.0
2014-Oct-26 03:26N 56°06' W 003°08'0 0.0
2014-Oct-26 02:26N 56°06' W 003°08'0 0.0
2014-Oct-26 01:26N 56°06' W 003°08'0 0.0
2014-Oct-26 00:29N 56°06' W 003°08'0 0.0
2014-Oct-25 23:29N 56°06' W 003°08'0 0.0
2014-Oct-25 22:29N 56°06' W 003°08'0 0.0
2014-Oct-25 21:32N 56°06' W 003°08'0 0.0
2014-Oct-25 20:32N 56°06' W 003°08'0 0.0
2014-Oct-25 19:32N 56°06' W 003°08'0 0.0
2014-Oct-25 18:32N 56°06' W 003°08'0 0.0
2014-Oct-25 17:32N 56°06' W 003°08'0 0.0
2014-Oct-25 16:32N 56°06' W 003°08'0 0.0
2014-Oct-25 15:32N 56°06' W 003°08'1 0.9
2014-Oct-25 14:33N 56°06' W 003°06'9 9.4
2014-Oct-25 13:33N 56°06' W 002°49'9 9.4
2014-Oct-25 12:33N 56°04' W 002°33'1010.2
2014-Oct-25 11:33N 55°59' W 002°17'1111.0
2014-Oct-25 10:31N 55°53' W 001°59'5510.9
2014-Oct-25 05:30N 55°05' W 001°14'9 9.6
2014-Oct-25 04:33N 54°57' W 001°07'9 9.3
2014-Oct-25 03:33N 54°49' W 000°56'9 9.2
2014-Oct-25 02:33N 54°42' W 000°46'12 9.5
2014-Oct-25 01:17N 54°33' W 000°33'710.3
2014-Oct-25 00:33N 54°27' W 000°24'1110.9
2014-Oct-24 23:33N 54°19' W 000°13'1211.9
2014-Oct-24 22:33N 54°09' W 000°01'1212.0
2014-Oct-24 21:33N 53°59' E 000°10'1211.5
2014-Oct-24 20:33N 53°49' E 000°20'1111.0
2014-Oct-24 19:33N 53°39' E 000°28'10 9.7
2014-Oct-24 18:32N 53°30' E 000°35'36 9.1
2014-Oct-24 14:33N 53°01' E 001°11'1212.1
2014-Oct-24 13:33N 52°55' E 001°28'1312.5
2014-Oct-24 12:33N 52°48' E 001°45'10 9.9
2014-Oct-24 11:33N 52°40' E 001°54'1010.1
2014-Oct-24 10:33N 52°30' E 001°53'8 8.3
2014-Oct-24 09:33N 52°21' E 001°52'8 7.9
2014-Oct-24 08:33N 52°13' E 001°52'8 7.9
2014-Oct-24 07:33N 52°06' E 001°50'8 8.4
2014-Oct-24 06:33N 51°57' E 001°49'8 8.4
2014-Oct-24 05:33N 51°50' E 001°43'1110.6
2014-Oct-24 04:33N 51°46' E 001°28'1211.8
2014-Oct-24 03:33N 51°37' E 001°14'1212.4
2014-Oct-24 02:33N 51°31' E 000°57'1211.6
2014-Oct-24 01:33N 51°30' E 000°39'9 9.1
2014-Oct-24 00:33N 51°27' E 000°25'3 3.2
2014-Oct-23 23:33N 51°28' E 000°20'0 0.0
2014-Oct-23 22:33N 51°28' E 000°20'0 0.0
2014-Oct-23 21:33N 51°28' E 000°20'0 0.0
2014-Oct-23 20:33N 51°28' E 000°20'0 0.0
2014-Oct-23 19:33N 51°28' E 000°20'0 0.0
2014-Oct-23 18:33N 51°28' E 000°20'0 0.0
2014-Oct-23 17:33N 51°28' E 000°20'0 0.0
2014-Oct-23 16:33N 51°28' E 000°20'0 0.0
2014-Oct-23 15:33N 51°28' E 000°20'0 0.0
2014-Oct-23 14:33N 51°28' E 000°20'0 0.0
2014-Oct-23 13:33N 51°28' E 000°20'0 0.0
2014-Oct-23 12:33N 51°28' E 000°20'0 0.1
2014-Oct-23 11:33N 51°28' E 000°20'5 4.9
2014-Oct-23 10:33N 51°29' E 000°28'9 9.4
2014-Oct-23 09:33N 51°30' E 000°43'1010.0
2014-Oct-23 08:33N 51°30' E 000°59'0 0.3
2014-Oct-23 07:26N 51°31' E 000°59'0 0.1
2014-Oct-23 06:32N 51°31' E 000°59'0 0.0
2014-Oct-23 05:29N 51°31' E 000°59'0 0.0
2014-Oct-23 04:32N 51°31' E 000°59'0 0.0
2014-Oct-23 03:32N 51°31' E 000°59'0 0.0
2014-Oct-23 02:32N 51°31' E 000°59'0 0.0
2014-Oct-23 01:32N 51°31' E 000°59'0 0.0
2014-Oct-23 00:32N 51°31' E 000°59'0 0.1
2014-Oct-22 23:34N 51°31' E 000°59'1211.6
2014-Oct-22 22:34N 51°29' E 001°18'1212.2
2014-Oct-22 21:34N 51°29' E 001°37'1110.6
2014-Oct-22 20:33N 51°28' E 001°54'1010.1
2014-Oct-22 19:33N 51°23' E 002°09'1010.1
2014-Oct-22 18:33N 51°22' E 002°25'1111.1
2014-Oct-22 17:33N 51°22' E 002°42'1110.8
2014-Oct-22 16:34N 51°22' E 002°60'1211.6
2014-Oct-22 15:33N 51°24' E 003°18'1111.5
2014-Oct-22 14:33N 51°26' E 003°36'10 9.8
2014-Oct-22 13:33N 51°22' E 003°51'8 7.6
2014-Oct-22 12:34N 51°26' E 004°02'7 7.1
2014-Oct-22 11:33N 51°23' E 004°13'4 3.9
2014-Oct-22 10:33N 51°21' E 004°17'5 4.9
2014-Oct-22 09:33N 51°17' E 004°21'0 0.0
2014-Oct-22 08:30N 51°17' E 004°21'0 0.0
2014-Oct-22 07:33N 51°17' E 004°21'0 0.0
2014-Oct-22 06:30N 51°17' E 004°21'0 0.0
2014-Oct-22 05:33N 51°17' E 004°21'  

Dump ship's entire track history